Time;durP1;ratioP1;P1;durP2;ratioP2;P2;SDS_P1;SDS_P2;PMS_P1;PMS_P2;Temp;Humidity;BMP_temperature;BMP_pressure;BME280_temperature;BME280_humidity;BME280_pressure;Samples;Min_cycle;Max_cycle;Signal;HPM_P1;HPM_P2
2023/08/04 00:01:45;;;;;;;3.65;1.23;;;;;;;;;;4995310;28;20048;-82
2023/08/04 00:04:10;;;;;;;4.78;1.50;;;;;;;;;;4998688;28;20038;-82
2023/08/04 00:06:35;;;;;;;3.17;1.30;;;;;;;;;;4996121;28;20949;-83
2023/08/04 00:09:01;;;;;;;2.95;1.20;;;;;;;;;;5001611;28;20503;-82
2023/08/04 00:11:26;;;;;;;2.40;1.13;;;;;;;;;;4999959;28;20030;-82
2023/08/04 00:13:51;;;;;;;3.40;1.40;;;;;;;;;;5006912;28;20253;-82
2023/08/04 00:16:17;;;;;;;3.25;1.30;;;;;;;;;;5000871;28;20054;-82
2023/08/04 00:18:42;;;;;;;3.58;1.25;;;;;;;;;;5012515;28;20038;-82
2023/08/04 00:21:07;;;;;;;2.83;1.45;;;;;;;;;;4998980;28;20045;-82
2023/08/04 00:23:33;;;;;;;3.45;1.50;;;;;;;;;;5013661;28;20048;-82
2023/08/04 00:25:58;;;;;;;3.03;1.40;;;;;;;;;;5012122;28;20033;-82
2023/08/04 00:28:23;;;;;;;4.85;1.42;;;;;;;;;;4999017;28;20908;-82
2023/08/04 00:30:49;;;;;;;2.65;1.50;;;;;;;;;;4998197;28;20382;-82
2023/08/04 00:33:15;;;;;;;4.40;1.60;;;;;;;;;;4996118;28;20095;-82
2023/08/04 00:35:40;;;;;;;5.38;1.45;;;;;;;;;;5002397;28;20129;-82
2023/08/04 00:38:06;;;;;;;4.68;1.60;;;;;;;;;;5005856;28;20906;-82
2023/08/04 00:40:32;;;;;;;5.80;2.00;;;;;;;;;;5019926;28;20489;-82
2023/08/04 00:42:58;;;;;;;3.30;1.70;;;;;;;;;;5003221;28;20042;-82
2023/08/04 00:45:25;;;;;;;3.42;1.50;;;;;;;;;;5024716;28;20040;-82
2023/08/04 00:47:52;;;;;;;4.63;1.95;;;;;;;;;;5005660;28;20493;-82
2023/08/04 00:50:18;;;;;;;4.20;1.60;;;;;;;;;;5019472;28;20030;-82
2023/08/04 00:52:44;;;;;;;3.95;1.77;;;;;;;;;;5009909;28;20434;-82
2023/08/04 00:55:10;;;;;;;4.32;1.80;;;;;;;;;;5000809;28;20029;-83
2023/08/04 00:57:36;;;;;;;6.13;1.80;;;;;;;;;;5006049;28;20326;-82
2023/08/04 01:00:02;;;;;;;6.40;2.30;;;;;;;;;;4997541;28;20121;-82
2023/08/04 01:02:28;;;;;;;5.13;1.73;;;;;;;;;;4994079;28;20038;-82
2023/08/04 01:04:53;;;;;;;4.85;1.98;;;;;;;;;;4998456;28;20437;-82
2023/08/04 01:07:22;;;;;;;7.50;2.05;;;;;;;;;;5002919;28;20050;-82
2023/08/04 01:10:15;;;;;;;4.15;1.65;;;;;;;;;;5009842;28;20061;-82
2023/08/04 01:12:56;;;;;;;5.25;1.90;;;;;;;;;;5019682;28;20049;-82
2023/08/04 01:15:24;;;;;;;3.63;1.80;;;;;;;;;;5016290;28;20057;-82
2023/08/04 01:17:50;;;;;;;3.78;2.05;;;;;;;;;;5016502;28;20057;-82
2023/08/04 01:20:15;;;;;;;3.92;2.00;;;;;;;;;;5010076;28;20069;-82
2023/08/04 01:22:40;;;;;;;6.82;2.33;;;;;;;;;;5017981;28;20087;-82
2023/08/04 01:25:06;;;;;;;5.43;2.15;;;;;;;;;;5005166;28;20061;-82
2023/08/04 01:27:35;;;;;;;5.35;1.90;;;;;;;;;;5008993;28;20026;-82
2023/08/04 01:30:04;;;;;;;7.63;2.33;;;;;;;;;;5000120;28;20038;-82
2023/08/04 01:32:29;;;;;;;5.13;1.95;;;;;;;;;;5006575;28;20095;-82
2023/08/04 01:34:55;;;;;;;8.80;2.42;;;;;;;;;;5016441;28;20124;-81
2023/08/04 01:37:20;;;;;;;5.90;2.00;;;;;;;;;;5006186;28;20034;-82
2023/08/04 01:39:46;;;;;;;5.32;2.00;;;;;;;;;;5008310;28;20595;-82
2023/08/04 01:42:12;;;;;;;5.35;2.20;;;;;;;;;;5007920;28;20063;-82
2023/08/04 01:44:38;;;;;;;6.80;2.25;;;;;;;;;;5009505;28;20128;-83
2023/08/04 01:47:05;;;;;;;5.88;2.15;;;;;;;;;;4988925;28;20113;-83
2023/08/04 01:49:31;;;;;;;5.13;2.22;;;;;;;;;;4977205;28;20095;-82
2023/08/04 01:51:56;;;;;;;6.78;2.10;;;;;;;;;;4993813;28;20590;-82
2023/08/04 01:54:22;;;;;;;7.75;2.33;;;;;;;;;;4996432;28;20038;-82
2023/08/04 01:56:47;;;;;;;4.28;2.17;;;;;;;;;;4986627;28;20038;-82
2023/08/04 01:59:13;;;;;;;4.93;2.30;;;;;;;;;;4995853;28;20079;-82
2023/08/04 02:01:38;;;;;;;5.95;2.20;;;;;;;;;;4996945;28;20068;-82
2023/08/04 02:04:07;;;;;;;5.65;2.28;;;;;;;;;;4982970;28;20045;-82
2023/08/04 02:06:32;;;;;;;6.10;2.35;;;;;;;;;;4986382;28;20104;-82
2023/08/04 02:08:58;;;;;;;6.30;2.20;;;;;;;;;;5012463;28;20485;-82
2023/08/04 02:11:23;;;;;;;4.18;2.22;;;;;;;;;;4982462;28;20677;-83
2023/08/04 02:13:49;;;;;;;6.25;2.53;;;;;;;;;;4982650;28;20497;-82
2023/08/04 02:16:14;;;;;;;5.03;2.50;;;;;;;;;;4997408;28;20382;-82
2023/08/04 02:18:39;;;;;;;5.05;2.38;;;;;;;;;;4974349;28;20030;-82
2023/08/04 02:21:05;;;;;;;6.50;2.40;;;;;;;;;;4978092;28;20038;-82
2023/08/04 02:23:31;;;;;;;5.82;2.28;;;;;;;;;;5019442;28;20588;-83
2023/08/04 02:25:57;;;;;;;5.87;2.50;;;;;;;;;;5019684;28;20026;-82
2023/08/04 02:28:22;;;;;;;4.45;2.50;;;;;;;;;;5014479;28;20045;-83
2023/08/04 02:30:48;;;;;;;5.03;2.42;;;;;;;;;;5000486;28;20038;-82
2023/08/04 02:33:13;;;;;;;5.72;2.55;;;;;;;;;;5005807;28;20042;-82
2023/08/04 02:35:39;;;;;;;5.38;2.33;;;;;;;;;;5013526;28;20128;-82
2023/08/04 02:38:04;;;;;;;4.82;2.50;;;;;;;;;;5000420;28;20034;-83
2023/08/04 02:40:29;;;;;;;7.97;2.50;;;;;;;;;;5015431;28;20084;-82
2023/08/04 02:42:55;;;;;;;7.45;2.90;;;;;;;;;;4997139;28;20042;-83
2023/08/04 02:45:20;;;;;;;6.40;2.40;;;;;;;;;;5021988;28;20054;-82
2023/08/04 02:47:45;;;;;;;5.15;2.20;;;;;;;;;;4999832;28;20797;-82
2023/08/04 02:50:11;;;;;;;5.45;2.35;;;;;;;;;;5018464;28;20037;-83
2023/08/04 02:52:36;;;;;;;7.57;2.92;;;;;;;;;;5001033;28;20641;-83
2023/08/04 02:55:01;;;;;;;8.68;2.70;;;;;;;;;;5002014;28;20041;-82
2023/08/04 02:57:31;;;;;;;4.75;2.63;;;;;;;;;;5013083;28;20479;-82
2023/08/04 02:59:57;;;;;;;5.93;2.50;;;;;;;;;;5002644;28;20034;-82
2023/08/04 03:02:23;;;;;;;9.23;2.97;;;;;;;;;;5012099;28;20188;-83
2023/08/04 03:04:48;;;;;;;7.60;2.45;;;;;;;;;;5011255;28;20831;-83
2023/08/04 03:07:14;;;;;;;9.77;4.18;;;;;;;;;;4981359;28;20634;-82
2023/08/04 03:09:39;;;;;;;8.90;2.92;;;;;;;;;;5013783;28;20044;-82
2023/08/04 03:12:05;;;;;;;9.23;2.80;;;;;;;;;;5003759;28;20032;-82
2023/08/04 03:14:30;;;;;;;9.82;2.60;;;;;;;;;;5014752;28;20382;-82
2023/08/04 03:16:56;;;;;;;7.15;2.80;;;;;;;;;;5004524;28;20064;-82
2023/08/04 03:19:21;;;;;;;6.80;3.35;;;;;;;;;;5011812;28;20037;-82
2023/08/04 03:21:46;;;;;;;5.80;2.58;;;;;;;;;;5004605;28;20040;-82
2023/08/04 03:24:12;;;;;;;6.55;2.83;;;;;;;;;;5004410;28;20370;-82
2023/08/04 03:26:37;;;;;;;9.48;2.90;;;;;;;;;;5004441;28;20092;-82
2023/08/04 03:29:02;;;;;;;6.82;2.80;;;;;;;;;;5001888;28;20040;-82
2023/08/04 03:31:28;;;;;;;7.20;2.70;;;;;;;;;;4998229;28;20149;-83
2023/08/04 03:33:53;;;;;;;8.20;2.85;;;;;;;;;;5004984;28;20069;-83
2023/08/04 03:36:19;;;;;;;8.02;3.05;;;;;;;;;;5010223;28;20041;-82
2023/08/04 03:38:44;;;;;;;9.77;3.40;;;;;;;;;;5004851;28;20049;-82
2023/08/04 03:41:09;;;;;;;6.43;3.30;;;;;;;;;;5002415;28;20041;-83
2023/08/04 03:43:35;;;;;;;8.75;3.50;;;;;;;;;;4999450;28;20026;-83
2023/08/04 03:46:00;;;;;;;7.03;3.00;;;;;;;;;;5015144;28;20116;-83
2023/08/04 03:48:25;;;;;;;11.20;3.50;;;;;;;;;;5001297;28;20485;-82
2023/08/04 03:50:51;;;;;;;8.43;2.83;;;;;;;;;;4995596;28;20045;-82
2023/08/04 03:53:16;;;;;;;9.40;3.22;;;;;;;;;;5004178;28;20064;-82
2023/08/04 03:55:42;;;;;;;9.43;3.50;;;;;;;;;;5013048;28;20072;-82
2023/08/04 03:58:08;;;;;;;9.52;3.28;;;;;;;;;;4997597;28;20397;-81
2023/08/04 04:00:33;;;;;;;7.57;3.42;;;;;;;;;;4996366;28;20033;-82
2023/08/04 04:02:59;;;;;;;9.30;3.60;;;;;;;;;;4997962;28;20072;-82
2023/08/04 04:05:24;;;;;;;8.13;3.78;;;;;;;;;;5012537;28;20104;-82
2023/08/04 04:07:49;;;;;;;9.15;3.40;;;;;;;;;;4999903;28;20041;-82
2023/08/04 04:10:15;;;;;;;10.80;3.47;;;;;;;;;;5001207;28;20033;-82
2023/08/04 04:12:40;;;;;;;6.30;3.22;;;;;;;;;;4999486;28;20583;-82
2023/08/04 04:15:06;;;;;;;12.27;3.83;;;;;;;;;;5002225;28;20439;-82
2023/08/04 04:17:32;;;;;;;11.98;3.60;;;;;;;;;;5013556;28;20044;-82
2023/08/04 04:19:57;;;;;;;8.63;3.20;;;;;;;;;;4997522;28;20448;-82
2023/08/04 04:22:22;;;;;;;10.10;3.40;;;;;;;;;;5012960;28;20042;-82
2023/08/04 04:24:48;;;;;;;9.38;3.45;;;;;;;;;;5001519;28;20464;-82
2023/08/04 04:27:13;;;;;;;9.77;3.45;;;;;;;;;;4998568;28;20068;-83
2023/08/04 04:29:39;;;;;;;7.47;3.05;;;;;;;;;;4998471;28;20393;-82
2023/08/04 04:32:05;;;;;;;8.43;3.45;;;;;;;;;;5008847;28;20278;-82
2023/08/04 04:34:30;;;;;;;8.60;3.30;;;;;;;;;;5013432;28;20072;-82
2023/08/04 04:36:58;;;;;;;10.93;3.70;;;;;;;;;;4996617;28;20026;-82
2023/08/04 04:39:23;;;;;;;8.82;3.22;;;;;;;;;;5003835;28;20049;-82
2023/08/04 04:41:49;;;;;;;7.68;3.40;;;;;;;;;;4983898;28;20030;-82
2023/08/04 04:44:14;;;;;;;8.55;3.42;;;;;;;;;;4985126;28;20053;-82
2023/08/04 04:46:39;;;;;;;9.02;3.33;;;;;;;;;;4985460;28;20498;-82
2023/08/04 04:49:05;;;;;;;6.07;2.83;;;;;;;;;;4997049;28;20041;-83
2023/08/04 04:51:30;;;;;;;9.35;3.33;;;;;;;;;;4997871;28;20033;-82
2023/08/04 04:53:56;;;;;;;10.35;3.10;;;;;;;;;;4995426;28;20029;-82
2023/08/04 04:56:21;;;;;;;11.30;3.13;;;;;;;;;;5000650;28;20056;-82
2023/08/04 04:58:46;;;;;;;6.80;2.92;;;;;;;;;;5003629;28;20034;-82
2023/08/04 05:01:12;;;;;;;7.40;2.88;;;;;;;;;;4997215;28;20034;-83
2023/08/04 05:03:37;;;;;;;8.55;3.03;;;;;;;;;;4999959;28;20129;-83
2023/08/04 05:06:05;;;;;;;7.35;2.75;;;;;;;;;;5017098;28;20038;-82
2023/08/04 05:08:30;;;;;;;11.07;3.00;;;;;;;;;;5000273;28;20045;-82
2023/08/04 05:10:56;;;;;;;7.85;2.70;;;;;;;;;;5009713;28;20033;-82
2023/08/04 05:13:21;;;;;;;9.45;3.15;;;;;;;;;;5011608;28;20038;-82
2023/08/04 05:15:47;;;;;;;8.38;3.38;;;;;;;;;;5008878;28;20409;-82
2023/08/04 05:18:13;;;;;;;10.25;3.45;;;;;;;;;;5000030;28;20057;-83
2023/08/04 05:20:38;;;;;;;6.20;2.80;;;;;;;;;;5013402;28;20063;-83
2023/08/04 05:23:03;;;;;;;9.23;3.15;;;;;;;;;;5001515;28;20038;-83
2023/08/04 05:25:29;;;;;;;6.32;2.70;;;;;;;;;;5007742;28;20106;-82
2023/08/04 05:27:54;;;;;;;6.00;2.65;;;;;;;;;;5016536;28;20064;-82
2023/08/04 05:30:20;;;;;;;9.30;2.95;;;;;;;;;;5014622;28;20030;-82
2023/08/04 05:32:45;;;;;;;7.32;2.80;;;;;;;;;;4999568;28;20041;-82
2023/08/04 05:35:11;;;;;;;9.70;2.83;;;;;;;;;;5004479;28;20116;-82
2023/08/04 05:37:36;;;;;;;8.63;2.63;;;;;;;;;;5001357;28;20125;-82
2023/08/04 05:40:04;;;;;;;6.95;3.10;;;;;;;;;;5014094;28;20054;-82
2023/08/04 05:42:29;;;;;;;9.00;2.60;;;;;;;;;;5003691;28;20065;-82
2023/08/04 05:44:55;;;;;;;11.30;3.13;;;;;;;;;;5016405;28;20038;-83
2023/08/04 05:47:22;;;;;;;8.65;3.30;;;;;;;;;;5003344;28;20111;-83
2023/08/04 05:49:48;;;;;;;;;;;;;;;;;;5008463;28;20030;-83
2023/08/04 05:52:13;;;;;;;9.32;2.60;;;;;;;;;;5014634;28;20276;-82
2023/08/04 05:54:38;;;;;;;7.80;2.65;;;;;;;;;;5007512;28;20037;-82
2023/08/04 05:57:04;;;;;;;5.88;2.55;;;;;;;;;;5005669;28;20046;-82
2023/08/04 05:59:30;;;;;;;8.68;2.58;;;;;;;;;;5011705;28;20038;-82
2023/08/04 06:01:55;;;;;;;9.80;2.72;;;;;;;;;;5015288;28;20054;-82
2023/08/04 06:04:20;;;;;;;8.30;2.53;;;;;;;;;;4996714;28;20080;-82
2023/08/04 06:06:46;;;;;;;6.28;2.38;;;;;;;;;;5003340;28;20052;-83
2023/08/04 06:09:11;;;;;;;5.72;2.20;;;;;;;;;;5013757;28;20038;-83
2023/08/04 06:11:36;;;;;;;7.93;2.42;;;;;;;;;;4997765;28;20029;-82
2023/08/04 06:14:02;;;;;;;6.20;2.42;;;;;;;;;;5006378;28;20042;-82
2023/08/04 06:16:27;;;;;;;5.57;2.25;;;;;;;;;;5016609;28;20030;-82
2023/08/04 06:18:52;;;;;;;10.27;2.92;;;;;;;;;;5004232;28;20040;-82
2023/08/04 06:21:18;;;;;;;6.88;2.38;;;;;;;;;;5001656;28;20641;-82
2023/08/04 06:23:45;;;;;;;9.02;2.45;;;;;;;;;;5002841;28;20505;-82
2023/08/04 06:26:12;;;;;;;9.88;2.50;;;;;;;;;;5004168;28;20038;-83
2023/08/04 06:28:37;;;;;;;7.63;2.20;;;;;;;;;;5015483;28;20092;-81
2023/08/04 06:31:03;;;;;;;7.50;2.50;;;;;;;;;;4996664;28;20064;-82
2023/08/04 06:33:28;;;;;;;9.02;2.65;;;;;;;;;;5006480;28;20497;-82
2023/08/04 06:35:54;;;;;;;6.35;2.20;;;;;;;;;;4999448;28;20041;-83
2023/08/04 06:38:19;;;;;;;6.82;2.15;;;;;;;;;;5015563;28;20033;-82
2023/08/04 06:40:44;;;;;;;7.85;2.40;;;;;;;;;;4998251;28;20460;-83
2023/08/04 06:43:10;;;;;;;9.13;2.20;;;;;;;;;;4998513;28;20117;-83
2023/08/04 06:45:35;;;;;;;7.53;2.38;;;;;;;;;;5006417;28;20056;-82
2023/08/04 06:48:01;;;;;;;4.65;2.10;;;;;;;;;;4998030;28;20030;-82
2023/08/04 06:50:26;;;;;;;8.95;2.33;;;;;;;;;;4999314;28;20037;-82
2023/08/04 06:52:51;;;;;;;4.72;2.00;;;;;;;;;;4999701;28;20473;-82
2023/08/04 06:55:17;;;;;;;6.18;1.92;;;;;;;;;;4997324;28;20404;-82
2023/08/04 06:57:42;;;;;;;5.88;2.30;;;;;;;;;;5000273;28;20041;-82
2023/08/04 07:00:11;;;;;;;5.70;2.10;;;;;;;;;;5000088;28;20063;-82
2023/08/04 07:02:36;;;;;;;5.38;1.85;;;;;;;;;;4998324;28;20485;-83
2023/08/04 07:05:03;;;;;;;6.13;2.00;;;;;;;;;;5005612;28;20100;-82
2023/08/04 07:07:29;;;;;;;5.72;1.98;;;;;;;;;;5001096;28;20481;-82
2023/08/04 07:09:54;;;;;;;5.85;1.95;;;;;;;;;;5004672;28;20065;-83
2023/08/04 07:12:20;;;;;;;6.35;2.03;;;;;;;;;;5003620;28;20414;-83
2023/08/04 07:14:45;;;;;;;4.15;1.95;;;;;;;;;;5013239;28;20112;-83
2023/08/04 07:17:10;;;;;;;5.53;1.92;;;;;;;;;;5015162;28;20030;-82
2023/08/04 07:19:36;;;;;;;5.00;2.00;;;;;;;;;;5000898;28;20034;-82
2023/08/04 07:22:01;;;;;;;7.65;2.20;;;;;;;;;;5001425;28;20452;-82
2023/08/04 07:24:26;;;;;;;7.65;1.98;;;;;;;;;;5021601;28;20041;-82
2023/08/04 07:26:52;;;;;;;6.18;1.90;;;;;;;;;;5020792;28;20053;-82
2023/08/04 07:29:17;;;;;;;6.78;2.15;;;;;;;;;;5017028;28;20909;-83
2023/08/04 07:31:42;;;;;;;7.57;2.00;;;;;;;;;;4995931;28;20394;-82
2023/08/04 07:34:08;;;;;;;6.55;1.80;;;;;;;;;;4980493;28;20029;-83
2023/08/04 07:36:33;;;;;;;8.05;2.10;;;;;;;;;;4978196;28;20034;-82
2023/08/04 07:38:59;;;;;;;8.70;2.33;;;;;;;;;;4993230;28;20449;-83
2023/08/04 07:41:25;;;;;;;5.65;1.80;;;;;;;;;;4992426;28;20080;-82
2023/08/04 07:43:51;;;;;;;7.72;2.17;;;;;;;;;;4984192;28;20058;-82
2023/08/04 07:46:34;;;;;;;5.75;1.80;;;;;;;;;;4983332;28;20070;-81
2023/08/04 07:48:59;;;;;;;8.18;1.80;;;;;;;;;;4978781;28;20113;-81
2023/08/04 07:51:25;;;;;;;7.63;1.55;;;;;;;;;;4991546;28;20138;-81
2023/08/04 07:53:50;;;;;;;6.82;2.15;;;;;;;;;;4996393;28;20040;-82
2023/08/04 07:56:16;;;;;;;6.90;1.88;;;;;;;;;;4999588;28;21322;-82
2023/08/04 07:58:41;;;;;;;9.40;2.05;;;;;;;;;;5011493;28;20184;-82
2023/08/04 08:01:07;;;;;;;6.35;2.17;;;;;;;;;;5001279;28;20661;-82
2023/08/04 08:03:33;;;;;;;5.70;1.83;;;;;;;;;;5000216;28;20052;-82
2023/08/04 08:05:59;;;;;;;6.05;1.88;;;;;;;;;;5016799;28;20541;-82
2023/08/04 08:08:26;;;;;;;4.90;1.70;;;;;;;;;;5010346;28;20041;-82
2023/08/04 08:10:51;;;;;;;5.80;1.75;;;;;;;;;;5005014;28;20029;-81
2023/08/04 08:13:17;;;;;;;7.38;1.77;;;;;;;;;;5005083;28;20044;-82
2023/08/04 08:15:42;;;;;;;6.18;1.52;;;;;;;;;;5011025;28;20034;-82
2023/08/04 08:18:08;;;;;;;5.93;1.90;;;;;;;;;;5011062;28;20469;-82
2023/08/04 08:20:33;;;;;;;7.60;1.60;;;;;;;;;;4997341;28;20076;-82
2023/08/04 08:22:59;;;;;;;5.63;1.60;;;;;;;;;;5013722;28;20486;-82
2023/08/04 08:25:24;;;;;;;10.75;1.98;;;;;;;;;;5010296;28;20033;-82
2023/08/04 08:27:50;;;;;;;5.63;1.60;;;;;;;;;;5018283;28;20034;-82
2023/08/04 08:30:16;;;;;;;5.60;1.45;;;;;;;;;;5016033;28;20231;-82
2023/08/04 08:32:41;;;;;;;7.22;2.03;;;;;;;;;;5003634;28;20046;-82
2023/08/04 08:35:07;;;;;;;5.40;1.42;;;;;;;;;;5001465;28;20505;-81
2023/08/04 08:37:32;;;;;;;5.63;1.58;;;;;;;;;;5001419;28;20037;-82
2023/08/04 08:39:58;;;;;;;6.40;1.77;;;;;;;;;;5013854;28;20030;-82
2023/08/04 08:42:23;;;;;;;7.20;1.65;;;;;;;;;;5011872;28;20598;-82
2023/08/04 08:44:49;;;;;;;5.90;1.45;;;;;;;;;;5000450;28;20145;-82
2023/08/04 08:47:14;;;;;;;9.60;2.97;;;;;;;;;;4993060;28;20059;-82
2023/08/04 08:49:48;;;;;;;6.95;2.15;;;;;;;;;;5003117;28;20037;-82
2023/08/04 08:52:13;;;;;;;4.00;1.58;;;;;;;;;;4994917;28;20156;-82
2023/08/04 08:54:39;;;;;;;4.57;1.50;;;;;;;;;;4999527;28;20108;-81
2023/08/04 08:57:05;;;;;;;8.73;2.35;;;;;;;;;;4982056;28;20034;-83
2023/08/04 08:59:32;;;;;;;7.40;2.10;;;;;;;;;;4986259;28;20038;-82
2023/08/04 09:01:58;;;;;;;8.18;2.22;;;;;;;;;;4985780;28;20045;-82
2023/08/04 09:04:24;;;;;;;6.05;1.70;;;;;;;;;;4984143;28;20117;-82
2023/08/04 09:06:50;;;;;;;5.45;1.52;;;;;;;;;;5004220;28;20489;-82
2023/08/04 09:09:15;;;;;;;5.88;1.90;;;;;;;;;;4989670;28;20132;-82
2023/08/04 09:11:41;;;;;;;6.05;1.73;;;;;;;;;;4993547;28;20057;-82
2023/08/04 09:14:06;;;;;;;7.57;1.80;;;;;;;;;;5003503;28;20034;-82
2023/08/04 09:16:36;;;;;;;6.93;1.70;;;;;;;;;;4982753;28;20128;-82
2023/08/04 09:19:06;;;;;;;6.35;1.52;;;;;;;;;;4993872;28;20026;-82
2023/08/04 09:21:32;;;;;;;7.35;1.48;;;;;;;;;;5016010;28;20385;-83
2023/08/04 09:23:58;;;;;;;4.55;1.35;;;;;;;;;;5001040;28;20042;-83
2023/08/04 09:26:24;;;;;;;4.53;1.67;;;;;;;;;;4997446;28;20041;-83
2023/08/04 09:29:05;;;;;;;6.10;1.83;;;;;;;;;;5001689;28;20141;-83
2023/08/04 09:31:48;;;;;;;5.50;1.60;;;;;;;;;;4977264;28;20026;-83
2023/08/04 09:34:14;;;;;;;7.47;1.88;;;;;;;;;;4979156;28;20524;-83
2023/08/04 09:36:47;;;;;;;4.55;2.00;;;;;;;;;;4985666;28;20077;-82
2023/08/04 09:39:13;;;;;;;4.63;1.80;;;;;;;;;;4998520;28;20034;-82
2023/08/04 09:41:43;;;;;;;3.45;1.10;;;;;;;;;;4983443;28;20142;-83
2023/08/04 09:44:09;;;;;;;3.90;1.33;;;;;;;;;;4978493;28;20389;-83
2023/08/04 09:46:54;;;;;;;4.22;1.17;;;;;;;;;;5011279;28;20113;-83
2023/08/04 09:49:20;;;;;;;4.32;1.17;;;;;;;;;;4982755;28;20042;-83
2023/08/04 09:51:49;;;;;;;4.47;1.20;;;;;;;;;;4979902;28;20034;-84
2023/08/04 09:54:14;;;;;;;3.67;1.00;;;;;;;;;;4987637;28;20053;-83
2023/08/04 09:56:41;;;;;;;5.47;1.15;;;;;;;;;;4987040;28;20655;-83
2023/08/04 09:59:07;;;;;;;3.33;1.13;;;;;;;;;;5031486;28;20038;-83
2023/08/04 10:01:33;;;;;;;5.70;1.25;;;;;;;;;;5013434;28;20062;-83
2023/08/04 10:03:59;;;;;;;4.72;1.50;;;;;;;;;;5020942;28;20464;-83
2023/08/04 10:06:25;;;;;;;7.45;1.40;;;;;;;;;;5001536;28;20041;-82
2023/08/04 10:08:55;;;;;;;4.20;1.40;;;;;;;;;;5003369;28;20034;-82
2023/08/04 10:11:22;;;;;;;3.80;1.40;;;;;;;;;;5002465;28;20041;-82
2023/08/04 10:13:53;;;;;;;6.22;2.10;;;;;;;;;;5015599;28;20041;-82
2023/08/04 10:16:21;;;;;;;4.55;1.52;;;;;;;;;;4991553;28;20037;-82
2023/08/04 10:18:53;;;;;;;3.83;1.42;;;;;;;;;;5013675;28;20053;-82
2023/08/04 10:21:27;;;;;;;5.13;1.50;;;;;;;;;;5018737;28;20033;-82
2023/08/04 10:23:52;;;;;;;8.32;1.70;;;;;;;;;;4992533;28;20126;-83
2023/08/04 10:26:18;;;;;;;4.57;1.20;;;;;;;;;;4984800;28;20154;-85
2023/08/04 10:29:16;;;;;;;2.85;1.00;;;;;;;;;;5010127;28;20693;-83
2023/08/04 10:31:51;;;;;;;4.85;1.35;;;;;;;;;;4948929;28;20449;-82
2023/08/04 10:34:27;;;;;;;3.53;1.20;;;;;;;;;;5001698;28;20553;-83
2023/08/04 10:37:16;;;;;;;4.43;1.30;;;;;;;;;;5005728;28;20605;-82
2023/08/04 10:39:55;;;;;;;5.07;1.10;;;;;;;;;;4999729;28;20044;-83
2023/08/04 10:42:23;;;;;;;3.13;1.20;;;;;;;;;;5013401;28;20497;-82
2023/08/04 10:45:05;;;;;;;4.32;1.30;;;;;;;;;;4994172;28;20679;-82
2023/08/04 10:47:31;;;;;;;4.20;1.45;;;;;;;;;;5016827;28;20781;-83
2023/08/04 10:49:58;;;;;;;3.58;1.20;;;;;;;;;;5011490;28;20100;-83
2023/08/04 10:52:24;;;;;;;4.55;1.58;;;;;;;;;;5013575;28;20048;-83
2023/08/04 10:54:51;;;;;;;3.72;1.30;;;;;;;;;;4998949;28;20153;-83
2023/08/04 10:57:23;;;;;;;4.45;1.17;;;;;;;;;;5015406;28;20038;-83
2023/08/04 10:59:49;;;;;;;5.10;0.98;;;;;;;;;;5022031;28;20473;-83
2023/08/04 11:02:22;;;;;;;5.57;1.27;;;;;;;;;;5012815;28;20493;-83
2023/08/04 11:04:48;;;;;;;8.05;1.20;;;;;;;;;;5005525;28;20269;-83
2023/08/04 11:07:17;;;;;;;3.17;1.00;;;;;;;;;;5001000;28;20053;-82
2023/08/04 11:09:44;;;;;;;2.75;1.02;;;;;;;;;;5021957;28;20038;-82
2023/08/04 11:12:10;;;;;;;6.88;1.73;;;;;;;;;;5015311;28;20495;-82
2023/08/04 11:14:36;;;;;;;6.95;1.55;;;;;;;;;;5019087;28;20117;-82
2023/08/04 11:17:02;;;;;;;4.95;1.25;;;;;;;;;;5012535;28;20638;-83
2023/08/04 11:19:32;;;;;;;4.57;1.40;;;;;;;;;;5004907;28;20053;-82
2023/08/04 11:22:07;;;;;;;7.53;2.20;;;;;;;;;;5010792;28;20033;-82
2023/08/04 11:24:32;;;;;;;3.78;1.52;;;;;;;;;;5022340;28;20033;-83
2023/08/04 11:26:57;;;;;;;5.63;1.40;;;;;;;;;;5014263;28;20416;-83
2023/08/04 11:29:24;;;;;;;5.45;1.23;;;;;;;;;;5005244;28;20036;-82
2023/08/04 11:31:50;;;;;;;6.43;1.63;;;;;;;;;;5001212;28;20560;-82
2023/08/04 11:34:16;;;;;;;5.78;1.45;;;;;;;;;;5001028;28;20108;-82
2023/08/04 11:36:42;;;;;;;7.72;1.77;;;;;;;;;;4999353;28;20030;-82
2023/08/04 11:39:08;;;;;;;3.67;1.42;;;;;;;;;;5015730;28;20034;-82
2023/08/04 11:41:34;;;;;;;5.90;1.60;;;;;;;;;;5014104;28;20033;-82
2023/08/04 11:43:59;;;;;;;5.22;1.73;;;;;;;;;;5004896;28;20399;-82
2023/08/04 11:46:26;;;;;;;5.38;1.52;;;;;;;;;;5004945;28;20092;-82
2023/08/04 11:48:52;;;;;;;5.28;1.80;;;;;;;;;;5003255;28;20588;-83
2023/08/04 11:51:17;;;;;;;4.47;1.40;;;;;;;;;;4992992;28;20082;-82
2023/08/04 11:53:45;;;;;;;4.97;1.63;;;;;;;;;;4985613;28;20332;-82
2023/08/04 11:56:11;;;;;;;3.33;1.40;;;;;;;;;;5017541;28;20389;-83
2023/08/04 11:58:43;;;;;;;5.60;1.40;;;;;;;;;;5018894;28;20034;-82
2023/08/04 12:01:30;;;;;;;5.03;1.50;;;;;;;;;;5001647;28;20145;-83
2023/08/04 12:03:56;;;;;;;4.55;1.48;;;;;;;;;;4980503;28;20042;-82
2023/08/04 12:06:23;;;;;;;5.65;1.38;;;;;;;;;;4980054;28;20043;-83
2023/08/04 12:08:54;;;;;;;3.38;1.38;;;;;;;;;;4977752;28;20038;-82
2023/08/04 12:11:22;;;;;;;5.28;1.30;;;;;;;;;;4986770;28;20038;-82
2023/08/04 12:13:48;;;;;;;4.32;1.10;;;;;;;;;;4982081;28;20049;-82
2023/08/04 12:16:13;;;;;;;5.50;1.40;;;;;;;;;;4984327;28;20933;-82
2023/08/04 12:18:39;;;;;;;4.47;1.20;;;;;;;;;;4977543;28;20496;-83
2023/08/04 12:21:05;;;;;;;4.40;1.10;;;;;;;;;;4982206;28;20041;-82
2023/08/04 12:23:30;;;;;;;3.67;1.13;;;;;;;;;;5000995;28;20759;-82
2023/08/04 12:25:56;;;;;;;4.45;0.98;;;;;;;;;;4993458;28;20042;-83
2023/08/04 12:28:21;;;;;;;5.10;1.40;;;;;;;;;;4983853;28;20397;-82
2023/08/04 12:30:47;;;;;;;4.60;1.25;;;;;;;;;;4975581;28;20048;-83
2023/08/04 12:33:13;;;;;;;4.72;1.20;;;;;;;;;;4995960;28;20659;-82
2023/08/04 12:35:38;;;;;;;3.47;1.40;;;;;;;;;;4997413;28;20034;-83
2023/08/04 12:38:04;;;;;;;4.18;1.13;;;;;;;;;;5005676;28;20029;-83
2023/08/04 12:40:33;;;;;;;5.50;1.20;;;;;;;;;;5022566;28;20029;-83
2023/08/04 12:42:58;;;;;;;5.18;1.13;;;;;;;;;;4977098;28;20034;-82
2023/08/04 12:45:24;;;;;;;3.13;1.20;;;;;;;;;;4984299;28;20041;-82
2023/08/04 12:47:49;;;;;;;6.55;1.40;;;;;;;;;;5005920;28;20497;-83
2023/08/04 12:50:15;;;;;;;4.20;1.38;;;;;;;;;;5004853;28;20025;-83
2023/08/04 12:52:40;;;;;;;4.13;1.35;;;;;;;;;;4995921;28;20050;-82
2023/08/04 12:55:06;;;;;;;4.05;1.20;;;;;;;;;;5001390;28;20042;-82
2023/08/04 12:57:31;;;;;;;2.80;1.13;;;;;;;;;;4985596;28;20575;-82
2023/08/04 13:00:00;;;;;;;4.47;1.38;;;;;;;;;;5001727;28;20484;-82
2023/08/04 13:02:26;;;;;;;6.05;1.30;;;;;;;;;;4951659;28;20038;-82
2023/08/04 13:04:51;;;;;;;5.85;1.60;;;;;;;;;;4996997;28;20493;-83
2023/08/04 13:07:17;;;;;;;5.50;1.50;;;;;;;;;;4998332;28;20034;-83
2023/08/04 13:09:42;;;;;;;7.32;1.40;;;;;;;;;;5002808;28;20121;-82
2023/08/04 13:12:08;;;;;;;4.25;1.30;;;;;;;;;;4971999;28;20517;-82
2023/08/04 13:14:33;;;;;;;5.10;1.30;;;;;;;;;;4993152;28;20431;-83
2023/08/04 13:16:59;;;;;;;5.25;1.23;;;;;;;;;;4983693;28;20034;-82
2023/08/04 13:19:24;;;;;;;4.53;1.30;;;;;;;;;;4979536;28;20037;-81
2023/08/04 13:21:50;;;;;;;7.07;1.48;;;;;;;;;;4990010;28;20037;-82
2023/08/04 13:24:16;;;;;;;4.75;1.50;;;;;;;;;;4993179;28;20045;-82
2023/08/04 13:26:42;;;;;;;4.22;1.20;;;;;;;;;;5008864;28;20038;-81
2023/08/04 13:29:07;;;;;;;3.45;0.95;;;;;;;;;;4999048;28;20109;-83
2023/08/04 13:31:35;;;;;;;4.07;1.10;;;;;;;;;;4993469;28;20456;-83
2023/08/04 13:34:08;;;;;;;3.90;1.00;;;;;;;;;;4992982;28;20087;-83
2023/08/04 13:36:33;;;;;;;3.15;0.90;;;;;;;;;;4976074;28;20036;-82
2023/08/04 13:38:59;;;;;;;3.20;1.10;;;;;;;;;;5000918;28;20042;-83
2023/08/04 13:41:27;;;;;;;4.72;1.45;;;;;;;;;;5001247;28;20045;-81
2023/08/04 13:43:53;;;;;;;3.33;1.20;;;;;;;;;;4985374;28;20026;-83
2023/08/04 13:46:18;;;;;;;2.97;1.20;;;;;;;;;;4986093;28;20682;-82
2023/08/04 13:48:57;;;;;;;2.20;0.73;;;;;;;;;;4988463;28;20100;-81
2023/08/04 13:51:24;;;;;;;5.60;1.00;;;;;;;;;;4996678;28;20039;-83
2023/08/04 13:53:55;;;;;;;2.75;0.90;;;;;;;;;;5002661;28;20064;-83
2023/08/04 13:56:41;;;;;;;3.70;1.13;;;;;;;;;;4988219;28;20038;-82
2023/08/04 13:59:07;;;;;;;6.85;1.10;;;;;;;;;;5012014;28;20116;-82
2023/08/04 14:01:33;;;;;;;4.25;1.00;;;;;;;;;;5005835;28;20032;-82
2023/08/04 14:04:07;;;;;;;3.75;0.82;;;;;;;;;;5085466;23;20041;-82
2023/08/04 14:06:34;;;;;;;4.25;1.13;;;;;;;;;;5049412;28;20135;-82
2023/08/04 14:09:01;;;;;;;3.80;1.15;;;;;;;;;;5060203;28;20040;-82
2023/08/04 14:11:30;;;;;;;4.22;0.90;;;;;;;;;;5041118;28;20081;-82
2023/08/04 14:13:55;;;;;;;3.28;0.82;;;;;;;;;;5039182;28;20032;-82
2023/08/04 14:16:20;;;;;;;2.60;0.82;;;;;;;;;;5048402;28;20039;-83
2023/08/04 14:18:46;;;;;;;3.92;1.05;;;;;;;;;;5039155;28;21041;-82
2023/08/04 14:21:11;;;;;;;4.00;1.00;;;;;;;;;;5048773;28;20033;-82
2023/08/04 14:23:36;;;;;;;2.90;0.98;;;;;;;;;;5056504;28;20032;-82
2023/08/04 14:26:02;;;;;;;4.43;1.02;;;;;;;;;;5042315;28;20536;-83
2023/08/04 14:28:31;;;;;;;3.92;1.02;;;;;;;;;;5043677;28;20040;-82
2023/08/04 14:30:56;;;;;;;2.95;0.85;;;;;;;;;;5039685;28;20040;-82
2023/08/04 14:33:22;;;;;;;3.30;0.90;;;;;;;;;;5032337;28;20032;-82
2023/08/04 14:35:47;;;;;;;4.45;1.00;;;;;;;;;;5035315;28;20051;-82
2023/08/04 14:38:16;;;;;;;2.85;1.00;;;;;;;;;;5044016;28;20398;-82
2023/08/04 14:40:41;;;;;;;3.03;1.20;;;;;;;;;;5043030;28;20041;-82